Terminal Aerodrome Forecast
Issued by NWS Jackson, MS

Home | Current Version | Previous Version | Text Only | Print | Product List | Glossary On
Versions: 1 2 3 4 5 6 7 8 9 10 11 12 13 14
000
FTUS44 KJAN 281739
TAFHBG
TAF
KHBG 281739Z 2818/2918 18011G24KT P6SM BKN030 BKN040 OVC050
     FM281900 17016G23KT P6SM BKN035
     FM290200 15014G21KT P6SM OVC025
     FM290500 15012KT P6SM OVC015
     FM291000 15010KT P6SM OVC007
     FM291400 15018G24KT P6SM BKN015=

USA.gov is the U.S. government's official web portal to all federal, state and local government web resources and services.